sensor_id;sensor_type;location;lat;lon;timestamp;P1;durP1;ratioP1;P2;durP2;ratioP2
54795;SDS011;40693;43.884;20.340;2023-04-15T00:01:07;17.33;;;9.70;;
54795;SDS011;40693;43.884;20.340;2023-04-15T00:03:32;20.67;;;13.73;;
54795;SDS011;40693;43.884;20.340;2023-04-15T00:05:58;44.50;;;30.30;;
54795;SDS011;40693;43.884;20.340;2023-04-15T00:08:24;33.60;;;21.13;;
54795;SDS011;40693;43.884;20.340;2023-04-15T00:10:50;19.45;;;10.23;;
54795;SDS011;40693;43.884;20.340;2023-04-15T00:13:15;17.92;;;10.10;;
54795;SDS011;40693;43.884;20.340;2023-04-15T00:15:41;11.48;;;7.05;;
54795;SDS011;40693;43.884;20.340;2023-04-15T00:18:07;17.58;;;9.30;;
54795;SDS011;40693;43.884;20.340;2023-04-15T00:20:33;40.55;;;22.15;;
54795;SDS011;40693;43.884;20.340;2023-04-15T00:22:59;41.63;;;23.60;;
54795;SDS011;40693;43.884;20.340;2023-04-15T00:25:26;35.70;;;22.75;;
54795;SDS011;40693;43.884;20.340;2023-04-15T00:27:53;32.90;;;21.35;;
54795;SDS011;40693;43.884;20.340;2023-04-15T00:30:18;29.88;;;17.35;;
54795;SDS011;40693;43.884;20.340;2023-04-15T00:32:44;26.67;;;14.82;;
54795;SDS011;40693;43.884;20.340;2023-04-15T00:35:10;25.00;;;16.90;;
54795;SDS011;40693;43.884;20.340;2023-04-15T00:37:36;30.27;;;18.67;;
54795;SDS011;40693;43.884;20.340;2023-04-15T00:40:02;40.00;;;22.73;;
54795;SDS011;40693;43.884;20.340;2023-04-15T00:42:30;36.63;;;22.67;;
54795;SDS011;40693;43.884;20.340;2023-04-15T00:44:56;31.95;;;20.08;;
54795;SDS011;40693;43.884;20.340;2023-04-15T00:47:22;28.08;;;19.05;;
54795;SDS011;40693;43.884;20.340;2023-04-15T00:49:47;29.98;;;17.60;;
54795;SDS011;40693;43.884;20.340;2023-04-15T00:52:13;29.48;;;17.00;;
54795;SDS011;40693;43.884;20.340;2023-04-15T00:54:39;23.20;;;14.30;;
54795;SDS011;40693;43.884;20.340;2023-04-15T00:57:05;19.98;;;11.02;;
54795;SDS011;40693;43.884;20.340;2023-04-15T00:59:32;19.67;;;11.70;;
54795;SDS011;40693;43.884;20.340;2023-04-15T01:01:58;17.75;;;11.10;;
54795;SDS011;40693;43.884;20.340;2023-04-15T01:04:24;19.02;;;11.32;;
54795;SDS011;40693;43.884;20.340;2023-04-15T01:06:50;17.73;;;9.20;;
54795;SDS011;40693;43.884;20.340;2023-04-15T01:09:16;13.70;;;7.82;;
54795;SDS011;40693;43.884;20.340;2023-04-15T01:11:42;14.13;;;7.07;;
54795;SDS011;40693;43.884;20.340;2023-04-15T01:14:08;14.48;;;8.27;;
54795;SDS011;40693;43.884;20.340;2023-04-15T01:16:35;16.42;;;10.05;;
54795;SDS011;40693;43.884;20.340;2023-04-15T01:19:04;14.90;;;8.27;;
54795;SDS011;40693;43.884;20.340;2023-04-15T01:21:35;21.55;;;11.98;;
54795;SDS011;40693;43.884;20.340;2023-04-15T01:24:03;51.00;;;27.85;;
54795;SDS011;40693;43.884;20.340;2023-04-15T01:26:33;45.22;;;24.05;;
54795;SDS011;40693;43.884;20.340;2023-04-15T01:29:01;32.40;;;17.90;;
54795;SDS011;40693;43.884;20.340;2023-04-15T01:31:27;20.42;;;10.50;;
54795;SDS011;40693;43.884;20.340;2023-04-15T01:33:53;19.25;;;10.40;;
54795;SDS011;40693;43.884;20.340;2023-04-15T01:36:19;16.70;;;8.27;;
54795;SDS011;40693;43.884;20.340;2023-04-15T01:38:44;20.77;;;11.10;;
54795;SDS011;40693;43.884;20.340;2023-04-15T01:41:12;14.30;;;7.60;;
54795;SDS011;40693;43.884;20.340;2023-04-15T01:43:38;13.48;;;7.70;;
54795;SDS011;40693;43.884;20.340;2023-04-15T01:46:04;14.10;;;7.88;;
54795;SDS011;40693;43.884;20.340;2023-04-15T01:48:30;14.20;;;8.05;;
54795;SDS011;40693;43.884;20.340;2023-04-15T01:50:56;8.52;;;5.25;;
54795;SDS011;40693;43.884;20.340;2023-04-15T01:53:23;9.80;;;4.95;;
54795;SDS011;40693;43.884;20.340;2023-04-15T01:55:50;11.98;;;6.20;;
54795;SDS011;40693;43.884;20.340;2023-04-15T01:58:16;11.15;;;6.00;;
54795;SDS011;40693;43.884;20.340;2023-04-15T02:00:42;9.63;;;6.60;;
54795;SDS011;40693;43.884;20.340;2023-04-15T02:03:09;12.43;;;7.03;;
54795;SDS011;40693;43.884;20.340;2023-04-15T02:05:35;8.93;;;4.45;;
54795;SDS011;40693;43.884;20.340;2023-04-15T02:08:01;7.22;;;3.80;;
54795;SDS011;40693;43.884;20.340;2023-04-15T02:10:27;5.13;;;3.60;;
54795;SDS011;40693;43.884;20.340;2023-04-15T02:12:53;7.55;;;3.70;;
54795;SDS011;40693;43.884;20.340;2023-04-15T02:15:19;4.82;;;3.03;;
54795;SDS011;40693;43.884;20.340;2023-04-15T02:17:44;5.90;;;3.75;;
54795;SDS011;40693;43.884;20.340;2023-04-15T02:20:14;7.93;;;5.32;;
54795;SDS011;40693;43.884;20.340;2023-04-15T02:22:42;11.77;;;7.32;;
54795;SDS011;40693;43.884;20.340;2023-04-15T02:25:08;11.30;;;5.60;;
54795;SDS011;40693;43.884;20.340;2023-04-15T02:27:36;9.07;;;4.80;;
54795;SDS011;40693;43.884;20.340;2023-04-15T02:30:02;9.60;;;4.22;;
54795;SDS011;40693;43.884;20.340;2023-04-15T02:32:28;8.98;;;4.35;;
54795;SDS011;40693;43.884;20.340;2023-04-15T02:34:54;7.40;;;3.55;;
54795;SDS011;40693;43.884;20.340;2023-04-15T02:37:20;6.78;;;4.68;;
54795;SDS011;40693;43.884;20.340;2023-04-15T02:39:46;8.07;;;3.80;;
54795;SDS011;40693;43.884;20.340;2023-04-15T02:42:11;6.35;;;3.80;;
54795;SDS011;40693;43.884;20.340;2023-04-15T02:44:37;6.93;;;3.78;;
54795;SDS011;40693;43.884;20.340;2023-04-15T02:47:03;12.43;;;6.68;;
54795;SDS011;40693;43.884;20.340;2023-04-15T02:49:31;21.20;;;11.55;;
54795;SDS011;40693;43.884;20.340;2023-04-15T02:51:57;29.10;;;16.75;;
54795;SDS011;40693;43.884;20.340;2023-04-15T02:54:24;23.50;;;13.10;;
54795;SDS011;40693;43.884;20.340;2023-04-15T02:56:52;10.13;;;5.47;;
54795;SDS011;40693;43.884;20.340;2023-04-15T02:59:20;9.48;;;5.07;;
54795;SDS011;40693;43.884;20.340;2023-04-15T03:01:46;6.97;;;3.80;;
54795;SDS011;40693;43.884;20.340;2023-04-15T03:04:12;5.30;;;2.95;;
54795;SDS011;40693;43.884;20.340;2023-04-15T03:06:38;5.30;;;3.03;;
54795;SDS011;40693;43.884;20.340;2023-04-15T03:09:04;5.07;;;2.47;;
54795;SDS011;40693;43.884;20.340;2023-04-15T03:11:29;4.00;;;2.65;;
54795;SDS011;40693;43.884;20.340;2023-04-15T03:13:55;4.93;;;2.50;;
54795;SDS011;40693;43.884;20.340;2023-04-15T03:16:22;4.10;;;2.10;;
54795;SDS011;40693;43.884;20.340;2023-04-15T03:18:48;4.88;;;2.80;;
54795;SDS011;40693;43.884;20.340;2023-04-15T03:21:14;4.75;;;3.05;;
54795;SDS011;40693;43.884;20.340;2023-04-15T03:23:40;4.65;;;2.33;;
54795;SDS011;40693;43.884;20.340;2023-04-15T03:26:05;5.22;;;3.20;;
54795;SDS011;40693;43.884;20.340;2023-04-15T03:28:31;6.13;;;2.60;;
54795;SDS011;40693;43.884;20.340;2023-04-15T03:30:57;6.20;;;3.08;;
54795;SDS011;40693;43.884;20.340;2023-04-15T03:33:23;6.63;;;4.00;;
54795;SDS011;40693;43.884;20.340;2023-04-15T03:35:49;5.20;;;2.90;;
54795;SDS011;40693;43.884;20.340;2023-04-15T03:38:16;6.13;;;3.15;;
54795;SDS011;40693;43.884;20.340;2023-04-15T03:40:42;5.40;;;3.67;;
54795;SDS011;40693;43.884;20.340;2023-04-15T03:43:07;6.55;;;4.25;;
54795;SDS011;40693;43.884;20.340;2023-04-15T03:45:33;6.05;;;4.22;;
54795;SDS011;40693;43.884;20.340;2023-04-15T03:47:59;7.53;;;4.78;;
54795;SDS011;40693;43.884;20.340;2023-04-15T03:50:25;7.32;;;4.18;;
54795;SDS011;40693;43.884;20.340;2023-04-15T03:52:51;8.32;;;4.82;;
54795;SDS011;40693;43.884;20.340;2023-04-15T03:55:17;10.43;;;4.68;;
54795;SDS011;40693;43.884;20.340;2023-04-15T03:57:43;9.68;;;4.00;;
54795;SDS011;40693;43.884;20.340;2023-04-15T04:00:09;5.95;;;3.63;;
54795;SDS011;40693;43.884;20.340;2023-04-15T04:02:35;8.40;;;4.70;;
54795;SDS011;40693;43.884;20.340;2023-04-15T04:05:01;9.25;;;6.03;;
54795;SDS011;40693;43.884;20.340;2023-04-15T04:07:27;6.28;;;3.80;;
54795;SDS011;40693;43.884;20.340;2023-04-15T04:09:53;6.15;;;3.10;;
54795;SDS011;40693;43.884;20.340;2023-04-15T04:12:18;6.10;;;3.22;;
54795;SDS011;40693;43.884;20.340;2023-04-15T04:14:44;6.00;;;2.15;;
54795;SDS011;40693;43.884;20.340;2023-04-15T04:17:10;3.88;;;2.60;;
54795;SDS011;40693;43.884;20.340;2023-04-15T04:19:35;8.02;;;4.03;;
54795;SDS011;40693;43.884;20.340;2023-04-15T04:22:01;7.30;;;3.83;;
54795;SDS011;40693;43.884;20.340;2023-04-15T04:24:27;9.23;;;5.97;;
54795;SDS011;40693;43.884;20.340;2023-04-15T04:26:52;6.95;;;4.80;;
54795;SDS011;40693;43.884;20.340;2023-04-15T04:29:18;7.38;;;4.97;;
54795;SDS011;40693;43.884;20.340;2023-04-15T04:31:44;7.75;;;4.88;;
54795;SDS011;40693;43.884;20.340;2023-04-15T04:34:10;7.03;;;4.53;;
54795;SDS011;40693;43.884;20.340;2023-04-15T04:36:36;7.72;;;4.03;;
54795;SDS011;40693;43.884;20.340;2023-04-15T04:39:02;8.20;;;4.45;;
54795;SDS011;40693;43.884;20.340;2023-04-15T04:41:28;13.48;;;7.63;;
54795;SDS011;40693;43.884;20.340;2023-04-15T04:43:53;17.15;;;8.60;;
54795;SDS011;40693;43.884;20.340;2023-04-15T04:46:19;15.88;;;8.05;;
54795;SDS011;40693;43.884;20.340;2023-04-15T04:48:45;12.02;;;7.43;;
54795;SDS011;40693;43.884;20.340;2023-04-15T04:51:11;15.27;;;7.63;;
54795;SDS011;40693;43.884;20.340;2023-04-15T04:53:37;11.02;;;5.68;;
54795;SDS011;40693;43.884;20.340;2023-04-15T04:56:03;11.38;;;7.13;;
54795;SDS011;40693;43.884;20.340;2023-04-15T04:58:29;13.52;;;8.20;;
54795;SDS011;40693;43.884;20.340;2023-04-15T05:00:54;12.10;;;7.97;;
54795;SDS011;40693;43.884;20.340;2023-04-15T05:03:20;11.98;;;6.78;;
54795;SDS011;40693;43.884;20.340;2023-04-15T05:05:46;11.82;;;7.10;;
54795;SDS011;40693;43.884;20.340;2023-04-15T05:08:13;11.98;;;7.00;;
54795;SDS011;40693;43.884;20.340;2023-04-15T05:10:39;10.15;;;6.45;;
54795;SDS011;40693;43.884;20.340;2023-04-15T05:13:05;14.75;;;7.63;;
54795;SDS011;40693;43.884;20.340;2023-04-15T05:15:31;13.48;;;7.97;;
54795;SDS011;40693;43.884;20.340;2023-04-15T05:17:57;23.10;;;13.02;;
54795;SDS011;40693;43.884;20.340;2023-04-15T05:20:23;14.02;;;6.25;;
54795;SDS011;40693;43.884;20.340;2023-04-15T05:22:48;8.80;;;5.13;;
54795;SDS011;40693;43.884;20.340;2023-04-15T05:25:14;9.90;;;5.38;;
54795;SDS011;40693;43.884;20.340;2023-04-15T05:27:40;8.40;;;5.53;;
54795;SDS011;40693;43.884;20.340;2023-04-15T05:30:06;7.32;;;4.55;;
54795;SDS011;40693;43.884;20.340;2023-04-15T05:32:33;11.98;;;7.00;;
54795;SDS011;40693;43.884;20.340;2023-04-15T05:34:58;11.18;;;7.85;;
54795;SDS011;40693;43.884;20.340;2023-04-15T05:37:24;23.02;;;11.85;;
54795;SDS011;40693;43.884;20.340;2023-04-15T05:39:50;16.20;;;9.57;;
54795;SDS011;40693;43.884;20.340;2023-04-15T05:42:16;18.30;;;13.10;;
54795;SDS011;40693;43.884;20.340;2023-04-15T05:44:42;12.20;;;6.70;;
54795;SDS011;40693;43.884;20.340;2023-04-15T05:47:08;10.00;;;6.35;;
54795;SDS011;40693;43.884;20.340;2023-04-15T05:49:34;8.98;;;6.85;;
54795;SDS011;40693;43.884;20.340;2023-04-15T05:52:00;17.85;;;8.48;;
54795;SDS011;40693;43.884;20.340;2023-04-15T05:54:26;19.25;;;12.85;;
54795;SDS011;40693;43.884;20.340;2023-04-15T05:56:52;27.70;;;17.77;;
54795;SDS011;40693;43.884;20.340;2023-04-15T05:59:18;27.85;;;18.33;;
54795;SDS011;40693;43.884;20.340;2023-04-15T06:01:45;30.52;;;20.00;;
54795;SDS011;40693;43.884;20.340;2023-04-15T06:04:11;21.60;;;13.63;;
54795;SDS011;40693;43.884;20.340;2023-04-15T06:06:36;18.33;;;12.70;;
54795;SDS011;40693;43.884;20.340;2023-04-15T06:09:03;31.63;;;21.00;;
54795;SDS011;40693;43.884;20.340;2023-04-15T06:11:29;16.48;;;11.63;;
54795;SDS011;40693;43.884;20.340;2023-04-15T06:13:55;13.23;;;8.07;;
54795;SDS011;40693;43.884;20.340;2023-04-15T06:16:20;15.93;;;10.80;;
54795;SDS011;40693;43.884;20.340;2023-04-15T06:18:47;13.48;;;8.48;;
54795;SDS011;40693;43.884;20.340;2023-04-15T06:21:13;14.30;;;8.02;;
54795;SDS011;40693;43.884;20.340;2023-04-15T06:23:39;12.82;;;8.52;;
54795;SDS011;40693;43.884;20.340;2023-04-15T06:26:06;12.20;;;8.07;;
54795;SDS011;40693;43.884;20.340;2023-04-15T06:28:32;14.25;;;9.68;;
54795;SDS011;40693;43.884;20.340;2023-04-15T06:30:57;12.98;;;8.00;;
54795;SDS011;40693;43.884;20.340;2023-04-15T06:33:23;12.13;;;7.47;;
54795;SDS011;40693;43.884;20.340;2023-04-15T06:35:49;10.23;;;6.53;;
54795;SDS011;40693;43.884;20.340;2023-04-15T06:38:15;8.25;;;5.50;;
54795;SDS011;40693;43.884;20.340;2023-04-15T06:40:40;11.05;;;5.55;;
54795;SDS011;40693;43.884;20.340;2023-04-15T06:43:06;9.38;;;5.80;;
54795;SDS011;40693;43.884;20.340;2023-04-15T06:45:33;9.32;;;6.15;;
54795;SDS011;40693;43.884;20.340;2023-04-15T06:47:59;8.02;;;4.32;;
54795;SDS011;40693;43.884;20.340;2023-04-15T06:50:25;9.82;;;4.47;;
54795;SDS011;40693;43.884;20.340;2023-04-15T06:52:51;9.25;;;4.55;;
54795;SDS011;40693;43.884;20.340;2023-04-15T06:55:18;11.30;;;4.40;;
54795;SDS011;40693;43.884;20.340;2023-04-15T06:57:44;6.85;;;4.40;;
54795;SDS011;40693;43.884;20.340;2023-04-15T07:00:10;12.30;;;5.82;;
54795;SDS011;40693;43.884;20.340;2023-04-15T07:02:36;7.80;;;4.63;;
54795;SDS011;40693;43.884;20.340;2023-04-15T07:05:02;9.38;;;5.80;;
54795;SDS011;40693;43.884;20.340;2023-04-15T07:07:28;12.23;;;5.95;;
54795;SDS011;40693;43.884;20.340;2023-04-15T07:09:54;11.02;;;5.97;;
54795;SDS011;40693;43.884;20.340;2023-04-15T07:12:20;9.57;;;5.65;;
54795;SDS011;40693;43.884;20.340;2023-04-15T07:14:46;7.45;;;4.88;;
54795;SDS011;40693;43.884;20.340;2023-04-15T07:17:11;8.07;;;4.18;;
54795;SDS011;40693;43.884;20.340;2023-04-15T07:19:37;7.53;;;3.92;;
54795;SDS011;40693;43.884;20.340;2023-04-15T07:22:02;7.80;;;3.90;;
54795;SDS011;40693;43.884;20.340;2023-04-15T07:24:28;7.47;;;4.32;;
54795;SDS011;40693;43.884;20.340;2023-04-15T07:26:55;11.02;;;4.72;;
54795;SDS011;40693;43.884;20.340;2023-04-15T07:29:22;10.07;;;3.40;;
54795;SDS011;40693;43.884;20.340;2023-04-15T07:31:48;4.75;;;2.83;;
54795;SDS011;40693;43.884;20.340;2023-04-15T07:34:14;6.53;;;2.80;;
54795;SDS011;40693;43.884;20.340;2023-04-15T07:36:40;4.60;;;3.05;;
54795;SDS011;40693;43.884;20.340;2023-04-15T07:39:06;5.95;;;3.78;;
54795;SDS011;40693;43.884;20.340;2023-04-15T07:41:32;3.75;;;1.90;;
54795;SDS011;40693;43.884;20.340;2023-04-15T07:43:58;5.25;;;1.77;;
54795;SDS011;40693;43.884;20.340;2023-04-15T07:46:24;5.97;;;3.00;;
54795;SDS011;40693;43.884;20.340;2023-04-15T07:48:51;3.22;;;1.40;;
54795;SDS011;40693;43.884;20.340;2023-04-15T07:51:20;3.88;;;2.00;;
54795;SDS011;40693;43.884;20.340;2023-04-15T07:53:46;4.57;;;1.77;;
54795;SDS011;40693;43.884;20.340;2023-04-15T07:56:14;4.97;;;2.95;;
54795;SDS011;40693;43.884;20.340;2023-04-15T07:58:40;3.25;;;1.58;;
54795;SDS011;40693;43.884;20.340;2023-04-15T08:01:06;2.25;;;1.40;;
54795;SDS011;40693;43.884;20.340;2023-04-15T08:03:32;2.38;;;1.50;;
54795;SDS011;40693;43.884;20.340;2023-04-15T08:05:58;3.67;;;1.85;;
54795;SDS011;40693;43.884;20.340;2023-04-15T08:08:24;3.20;;;1.98;;
54795;SDS011;40693;43.884;20.340;2023-04-15T08:10:50;4.55;;;3.10;;
54795;SDS011;40693;43.884;20.340;2023-04-15T08:13:16;4.50;;;2.47;;
54795;SDS011;40693;43.884;20.340;2023-04-15T08:15:42;6.72;;;3.20;;
54795;SDS011;40693;43.884;20.340;2023-04-15T08:18:08;3.92;;;2.28;;
54795;SDS011;40693;43.884;20.340;2023-04-15T08:20:34;5.68;;;1.70;;
54795;SDS011;40693;43.884;20.340;2023-04-15T08:22:59;6.78;;;3.10;;
54795;SDS011;40693;43.884;20.340;2023-04-15T08:25:25;23.35;;;10.38;;
54795;SDS011;40693;43.884;20.340;2023-04-15T08:27:53;12.40;;;5.25;;
54795;SDS011;40693;43.884;20.340;2023-04-15T08:30:20;4.60;;;2.42;;
54795;SDS011;40693;43.884;20.340;2023-04-15T08:32:45;2.65;;;1.80;;
54795;SDS011;40693;43.884;20.340;2023-04-15T08:35:11;5.47;;;2.20;;
54795;SDS011;40693;43.884;20.340;2023-04-15T08:37:37;6.15;;;2.90;;
54795;SDS011;40693;43.884;20.340;2023-04-15T08:40:03;3.00;;;1.63;;
54795;SDS011;40693;43.884;20.340;2023-04-15T08:42:30;4.50;;;1.75;;
54795;SDS011;40693;43.884;20.340;2023-04-15T08:44:58;4.35;;;2.20;;
54795;SDS011;40693;43.884;20.340;2023-04-15T08:47:28;4.88;;;2.22;;
54795;SDS011;40693;43.884;20.340;2023-04-15T08:49:58;6.82;;;2.33;;
54795;SDS011;40693;43.884;20.340;2023-04-15T08:52:29;3.58;;;2.10;;
54795;SDS011;40693;43.884;20.340;2023-04-15T08:54:55;3.75;;;1.70;;
54795;SDS011;40693;43.884;20.340;2023-04-15T08:57:28;7.03;;;2.10;;
54795;SDS011;40693;43.884;20.340;2023-04-15T08:59:56;3.80;;;1.90;;
54795;SDS011;40693;43.884;20.340;2023-04-15T09:02:23;5.95;;;2.47;;
54795;SDS011;40693;43.884;20.340;2023-04-15T09:04:50;6.40;;;2.75;;
54795;SDS011;40693;43.884;20.340;2023-04-15T09:07:16;6.00;;;2.65;;
54795;SDS011;40693;43.884;20.340;2023-04-15T09:09:41;7.22;;;3.42;;
54795;SDS011;40693;43.884;20.340;2023-04-15T09:12:07;9.20;;;3.45;;
54795;SDS011;40693;43.884;20.340;2023-04-15T09:14:36;6.07;;;2.85;;
54795;SDS011;40693;43.884;20.340;2023-04-15T09:17:04;4.95;;;2.70;;
54795;SDS011;40693;43.884;20.340;2023-04-15T09:19:34;7.53;;;2.42;;
54795;SDS011;40693;43.884;20.340;2023-04-15T09:21:59;10.07;;;3.33;;
54795;SDS011;40693;43.884;20.340;2023-04-15T09:24:37;5.55;;;2.33;;
54795;SDS011;40693;43.884;20.340;2023-04-15T09:27:03;3.85;;;2.10;;
54795;SDS011;40693;43.884;20.340;2023-04-15T09:29:30;2.72;;;1.38;;
54795;SDS011;40693;43.884;20.340;2023-04-15T09:31:56;4.53;;;2.20;;
54795;SDS011;40693;43.884;20.340;2023-04-15T09:34:36;2.22;;;1.65;;
54795;SDS011;40693;43.884;20.340;2023-04-15T09:37:02;4.20;;;2.40;;
54795;SDS011;40693;43.884;20.340;2023-04-15T09:39:44;3.53;;;1.40;;
54795;SDS011;40693;43.884;20.340;2023-04-15T09:42:19;4.68;;;1.65;;
54795;SDS011;40693;43.884;20.340;2023-04-15T09:44:48;4.55;;;1.98;;
54795;SDS011;40693;43.884;20.340;2023-04-15T09:47:31;3.20;;;2.17;;
54795;SDS011;40693;43.884;20.340;2023-04-15T09:49:57;2.30;;;1.60;;
54795;SDS011;40693;43.884;20.340;2023-04-15T09:52:23;5.15;;;2.25;;
54795;SDS011;40693;43.884;20.340;2023-04-15T09:54:51;3.15;;;1.90;;
54795;SDS011;40693;43.884;20.340;2023-04-15T09:57:20;4.82;;;1.67;;
54795;SDS011;40693;43.884;20.340;2023-04-15T09:59:47;6.47;;;2.53;;
54795;SDS011;40693;43.884;20.340;2023-04-15T10:02:13;6.40;;;3.88;;
54795;SDS011;40693;43.884;20.340;2023-04-15T10:04:42;5.82;;;3.65;;
54795;SDS011;40693;43.884;20.340;2023-04-15T10:07:10;2.20;;;1.40;;
54795;SDS011;40693;43.884;20.340;2023-04-15T10:09:37;3.92;;;1.48;;
54795;SDS011;40693;43.884;20.340;2023-04-15T10:12:04;2.92;;;1.70;;
54795;SDS011;40693;43.884;20.340;2023-04-15T10:14:32;5.72;;;2.20;;
54795;SDS011;40693;43.884;20.340;2023-04-15T10:17:00;3.50;;;2.05;;
54795;SDS011;40693;43.884;20.340;2023-04-15T10:19:26;3.75;;;2.33;;
54795;SDS011;40693;43.884;20.340;2023-04-15T10:21:57;6.72;;;3.05;;
54795;SDS011;40693;43.884;20.340;2023-04-15T10:24:24;3.13;;;1.85;;
54795;SDS011;40693;43.884;20.340;2023-04-15T10:26:50;3.67;;;1.83;;
54795;SDS011;40693;43.884;20.340;2023-04-15T10:29:16;3.45;;;1.83;;
54795;SDS011;40693;43.884;20.340;2023-04-15T10:31:43;3.50;;;2.03;;
54795;SDS011;40693;43.884;20.340;2023-04-15T10:34:10;4.07;;;1.30;;
54795;SDS011;40693;43.884;20.340;2023-04-15T10:36:36;5.22;;;2.13;;
54795;SDS011;40693;43.884;20.340;2023-04-15T10:39:08;3.38;;;1.70;;
54795;SDS011;40693;43.884;20.340;2023-04-15T10:42:07;4.95;;;2.30;;
54795;SDS011;40693;43.884;20.340;2023-04-15T10:44:37;3.47;;;2.63;;
54795;SDS011;40693;43.884;20.340;2023-04-15T10:47:08;5.80;;;2.50;;
54795;SDS011;40693;43.884;20.340;2023-04-15T10:49:41;4.57;;;2.85;;
54795;SDS011;40693;43.884;20.340;2023-04-15T10:52:10;3.10;;;1.73;;
54795;SDS011;40693;43.884;20.340;2023-04-15T10:54:38;10.40;;;5.10;;
54795;SDS011;40693;43.884;20.340;2023-04-15T10:59:37;10.18;;;4.90;;
54795;SDS011;40693;43.884;20.340;2023-04-15T11:02:37;7.87;;;3.97;;
54795;SDS011;40693;43.884;20.340;2023-04-15T11:05:09;31.83;;;14.23;;
54795;SDS011;40693;43.884;20.340;2023-04-15T11:07:49;5.13;;;2.97;;
54795;SDS011;40693;43.884;20.340;2023-04-15T11:12:48;3.35;;;2.15;;
54795;SDS011;40693;43.884;20.340;2023-04-15T11:18:16;3.20;;;1.75;;
54795;SDS011;40693;43.884;20.340;2023-04-15T11:20:47;4.97;;;2.67;;
54795;SDS011;40693;43.884;20.340;2023-04-15T11:23:23;3.78;;;2.38;;
54795;SDS011;40693;43.884;20.340;2023-04-15T11:25:57;4.85;;;3.15;;
54795;SDS011;40693;43.884;20.340;2023-04-15T11:28:28;3.60;;;1.73;;
54795;SDS011;40693;43.884;20.340;2023-04-15T11:30:55;4.53;;;2.17;;
54795;SDS011;40693;43.884;20.340;2023-04-15T11:33:21;6.15;;;3.53;;
54795;SDS011;40693;43.884;20.340;2023-04-15T11:35:48;3.97;;;2.63;;
54795;SDS011;40693;43.884;20.340;2023-04-15T11:38:14;3.45;;;2.22;;
54795;SDS011;40693;43.884;20.340;2023-04-15T11:40:44;8.35;;;2.53;;
54795;SDS011;40693;43.884;20.340;2023-04-15T11:43:11;2.05;;;1.23;;
54795;SDS011;40693;43.884;20.340;2023-04-15T11:48:23;1.65;;;1.10;;
54795;SDS011;40693;43.884;20.340;2023-04-15T11:51:00;7.00;;;2.22;;
54795;SDS011;40693;43.884;20.340;2023-04-15T11:56:03;9.48;;;4.47;;
54795;SDS011;40693;43.884;20.340;2023-04-15T11:58:30;6.63;;;2.83;;
54795;SDS011;40693;43.884;20.340;2023-04-15T12:00:58;6.28;;;2.65;;
54795;SDS011;40693;43.884;20.340;2023-04-15T12:06:23;8.65;;;4.35;;
54795;SDS011;40693;43.884;20.340;2023-04-15T12:11:21;4.55;;;2.65;;
54795;SDS011;40693;43.884;20.340;2023-04-15T12:16:21;25.77;;;14.32;;
54795;SDS011;40693;43.884;20.340;2023-04-15T12:18:54;7.85;;;5.18;;
54795;SDS011;40693;43.884;20.340;2023-04-15T12:21:22;4.63;;;3.20;;
54795;SDS011;40693;43.884;20.340;2023-04-15T12:23:49;7.47;;;4.32;;
54795;SDS011;40693;43.884;20.340;2023-04-15T12:26:17;5.20;;;4.30;;
54795;SDS011;40693;43.884;20.340;2023-04-15T12:28:52;3.92;;;2.63;;
54795;SDS011;40693;43.884;20.340;2023-04-15T12:31:35;4.53;;;2.17;;
54795;SDS011;40693;43.884;20.340;2023-04-15T12:34:10;5.40;;;3.42;;
54795;SDS011;40693;43.884;20.340;2023-04-15T12:36:36;10.52;;;8.55;;
54795;SDS011;40693;43.884;20.340;2023-04-15T12:39:02;2.10;;;1.80;;
54795;SDS011;40693;43.884;20.340;2023-04-15T12:41:29;3.95;;;1.58;;
54795;SDS011;40693;43.884;20.340;2023-04-15T12:43:55;3.13;;;1.83;;
54795;SDS011;40693;43.884;20.340;2023-04-15T12:46:21;3.97;;;2.60;;
54795;SDS011;40693;43.884;20.340;2023-04-15T12:48:47;4.85;;;3.63;;
54795;SDS011;40693;43.884;20.340;2023-04-15T12:51:14;5.22;;;3.55;;
54795;SDS011;40693;43.884;20.340;2023-04-15T12:53:39;6.05;;;4.68;;
54795;SDS011;40693;43.884;20.340;2023-04-15T12:56:05;6.57;;;3.75;;
54795;SDS011;40693;43.884;20.340;2023-04-15T12:58:31;3.13;;;1.83;;
54795;SDS011;40693;43.884;20.340;2023-04-15T13:00:57;7.78;;;3.88;;
54795;SDS011;40693;43.884;20.340;2023-04-15T13:03:23;6.78;;;3.10;;
54795;SDS011;40693;43.884;20.340;2023-04-15T13:05:49;8.27;;;3.95;;
54795;SDS011;40693;43.884;20.340;2023-04-15T13:08:15;15.23;;;7.88;;
54795;SDS011;40693;43.884;20.340;2023-04-15T13:10:40;3.25;;;2.95;;
54795;SDS011;40693;43.884;20.340;2023-04-15T13:13:07;5.47;;;2.72;;
54795;SDS011;40693;43.884;20.340;2023-04-15T13:15:33;3.50;;;2.30;;
54795;SDS011;40693;43.884;20.340;2023-04-15T13:17:59;7.68;;;3.35;;
54795;SDS011;40693;43.884;20.340;2023-04-15T13:20:25;29.95;;;14.75;;
54795;SDS011;40693;43.884;20.340;2023-04-15T13:22:52;7.93;;;3.80;;
54795;SDS011;40693;43.884;20.340;2023-04-15T13:25:18;3.47;;;2.33;;
54795;SDS011;40693;43.884;20.340;2023-04-15T13:27:44;4.93;;;3.33;;
54795;SDS011;40693;43.884;20.340;2023-04-15T13:30:10;3.08;;;2.17;;
54795;SDS011;40693;43.884;20.340;2023-04-15T13:32:36;4.65;;;2.08;;
54795;SDS011;40693;43.884;20.340;2023-04-15T13:35:02;4.78;;;3.13;;
54795;SDS011;40693;43.884;20.340;2023-04-15T13:37:29;2.95;;;1.85;;
54795;SDS011;40693;43.884;20.340;2023-04-15T13:39:55;4.88;;;2.67;;
54795;SDS011;40693;43.884;20.340;2023-04-15T13:42:21;3.85;;;2.45;;
54795;SDS011;40693;43.884;20.340;2023-04-15T13:44:51;5.80;;;1.65;;
54795;SDS011;40693;43.884;20.340;2023-04-15T13:47:17;1.60;;;1.02;;
54795;SDS011;40693;43.884;20.340;2023-04-15T13:49:43;3.38;;;1.85;;
54795;SDS011;40693;43.884;20.340;2023-04-15T13:52:10;4.10;;;2.30;;
54795;SDS011;40693;43.884;20.340;2023-04-15T13:54:36;33.88;;;16.10;;
54795;SDS011;40693;43.884;20.340;2023-04-15T13:57:02;15.55;;;8.18;;
54795;SDS011;40693;43.884;20.340;2023-04-15T13:59:29;8.43;;;4.28;;
54795;SDS011;40693;43.884;20.340;2023-04-15T14:01:54;6.40;;;3.55;;
54795;SDS011;40693;43.884;20.340;2023-04-15T14:04:20;4.35;;;3.10;;
54795;SDS011;40693;43.884;20.340;2023-04-15T14:06:46;6.18;;;4.13;;
54795;SDS011;40693;43.884;20.340;2023-04-15T14:09:12;6.60;;;4.63;;
54795;SDS011;40693;43.884;20.340;2023-04-15T14:11:37;6.75;;;3.28;;
54795;SDS011;40693;43.884;20.340;2023-04-15T14:14:04;4.03;;;2.25;;
54795;SDS011;40693;43.884;20.340;2023-04-15T14:16:33;3.85;;;2.20;;
54795;SDS011;40693;43.884;20.340;2023-04-15T14:18:59;5.97;;;3.75;;
54795;SDS011;40693;43.884;20.340;2023-04-15T14:21:25;4.82;;;2.75;;
54795;SDS011;40693;43.884;20.340;2023-04-15T14:23:56;6.45;;;2.92;;
54795;SDS011;40693;43.884;20.340;2023-04-15T14:26:21;7.13;;;4.45;;
54795;SDS011;40693;43.884;20.340;2023-04-15T14:28:47;10.93;;;5.25;;
54795;SDS011;40693;43.884;20.340;2023-04-15T14:31:13;13.30;;;7.75;;
54795;SDS011;40693;43.884;20.340;2023-04-15T14:33:39;7.35;;;4.47;;
54795;SDS011;40693;43.884;20.340;2023-04-15T14:36:05;12.18;;;8.35;;
54795;SDS011;40693;43.884;20.340;2023-04-15T14:38:33;11.68;;;6.25;;
54795;SDS011;40693;43.884;20.340;2023-04-15T14:41:05;7.32;;;4.30;;
54795;SDS011;40693;43.884;20.340;2023-04-15T14:43:32;7.68;;;5.45;;
54795;SDS011;40693;43.884;20.340;2023-04-15T14:45:58;7.13;;;3.53;;
54795;SDS011;40693;43.884;20.340;2023-04-15T14:48:24;6.75;;;3.53;;